createdAt,value
2018-06-05T00:01:09.475Z,10.80
2018-06-05T00:06:12.619Z,8.18
2018-06-05T00:11:16.883Z,7.45
2018-06-05T00:16:19.953Z,9.63
2018-06-05T00:21:23.106Z,6.78
2018-06-05T00:26:26.200Z,8.13
2018-06-05T00:31:29.252Z,8.30
2018-06-05T00:36:32.365Z,7.87
2018-06-05T00:41:35.424Z,9.30
2018-06-05T00:46:38.453Z,8.98
2018-06-05T00:51:47.100Z,9.20
2018-06-05T00:56:50.169Z,8.40
2018-06-05T01:01:54.213Z,10.08
2018-06-05T01:06:57.405Z,8.80
2018-06-05T01:12:00.557Z,8.65
2018-06-05T01:17:03.847Z,8.38
2018-06-05T01:22:06.967Z,12.05
2018-06-05T01:27:12.971Z,9.00
2018-06-05T01:32:16.024Z,8.83
2018-06-05T01:37:19.107Z,10.48
2018-06-05T01:42:22.206Z,10.05
2018-06-05T01:47:25.263Z,12.15
2018-06-05T01:52:28.343Z,9.60
2018-06-05T01:57:31.721Z,10.25
2018-06-05T02:02:34.809Z,12.60
2018-06-05T02:07:37.873Z,10.48
2018-06-05T02:12:40.949Z,12.50
2018-06-05T02:17:44.040Z,10.50
2018-06-05T02:22:47.132Z,10.93
2018-06-05T02:27:50.228Z,10.55
2018-06-05T02:32:53.320Z,13.50
2018-06-05T02:37:56.683Z,13.65
2018-06-05T02:42:59.825Z,15.83
2018-06-05T02:48:02.952Z,15.88
2018-06-05T02:53:06.002Z,15.03
2018-06-05T02:58:09.125Z,17.37
2018-06-05T03:03:12.268Z,16.17
2018-06-05T03:08:15.443Z,18.45
2018-06-05T03:13:18.534Z,16.57
2018-06-05T03:18:21.647Z,19.25
2018-06-05T03:23:24.703Z,19.30
2018-06-05T03:28:28.443Z,19.05
2018-06-05T03:33:31.619Z,18.75
2018-06-05T03:38:35.561Z,15.75
2018-06-05T03:43:38.666Z,19.37
2018-06-05T03:48:41.736Z,20.27
2018-06-05T03:53:45.236Z,22.55
2018-06-05T03:58:48.264Z,18.48
2018-06-05T04:03:51.427Z,21.15
2018-06-05T04:08:54.694Z,20.45
2018-06-05T04:13:57.872Z,23.75
2018-06-05T04:19:00.953Z,20.43
2018-06-05T04:24:04.595Z,17.25
2018-06-05T04:29:07.716Z,20.30
2018-06-05T04:34:10.784Z,19.82
2018-06-05T04:39:13.916Z,23.22
2018-06-05T04:44:17.056Z,21.05
2018-06-05T04:49:20.374Z,20.00
2018-06-05T04:54:23.840Z,21.12
2018-06-05T04:59:26.890Z,20.92
2018-06-05T05:04:29.971Z,21.57
2018-06-05T05:09:33.626Z,17.67
2018-06-05T05:14:36.712Z,19.42
2018-06-05T05:19:39.782Z,17.20
2018-06-05T05:24:42.895Z,14.47
2018-06-05T05:29:45.949Z,16.65
2018-06-05T05:34:49.134Z,12.85
2018-06-05T05:39:52.209Z,15.88
2018-06-05T05:44:55.285Z,16.55
2018-06-05T05:49:58.392Z,13.88
2018-06-05T05:55:02.457Z,16.60
2018-06-05T06:00:06.603Z,13.93
2018-06-05T06:05:09.801Z,15.20
2018-06-05T06:10:13.519Z,16.43
2018-06-05T06:15:16.649Z,18.17
2018-06-05T06:20:19.671Z,17.63
2018-06-05T06:25:22.773Z,16.43
2018-06-05T06:30:25.936Z,18.17
2018-06-05T06:35:29.035Z,22.90
2018-06-05T06:40:32.175Z,21.65
2018-06-05T06:45:35.508Z,27.85
2018-06-05T06:50:38.636Z,26.65
2018-06-05T06:55:42.020Z,29.23
2018-06-05T07:00:46.220Z,23.77
2018-06-05T07:05:49.299Z,21.23
2018-06-05T07:10:52.368Z,15.50
2018-06-05T07:15:55.524Z,13.15
2018-06-05T07:20:58.649Z,13.43
2018-06-05T07:26:02.163Z,10.90
2018-06-05T07:31:05.524Z,11.50
2018-06-05T07:36:08.586Z,10.13
2018-06-05T07:41:11.723Z,9.98
2018-06-05T07:46:15.749Z,10.18
2018-06-05T07:51:18.792Z,9.13
2018-06-05T07:56:21.900Z,9.48
2018-06-05T08:01:26.305Z,9.23
2018-06-05T08:06:29.417Z,9.05
2018-06-05T08:11:32.546Z,8.85
2018-06-05T08:16:36.541Z,8.20
2018-06-05T08:21:39.665Z,9.75
2018-06-05T08:26:51.577Z,8.63
2018-06-05T08:31:54.840Z,8.60
2018-06-05T08:36:57.836Z,9.35
2018-06-05T08:42:00.863Z,8.68
2018-06-05T08:47:04.036Z,7.60
2018-06-05T08:52:07.954Z,8.35
2018-06-05T08:57:11.156Z,7.72
2018-06-05T09:02:14.480Z,7.78
2018-06-05T09:07:17.552Z,8.00
2018-06-05T09:12:21.146Z,8.70
2018-06-05T09:17:24.257Z,29.87
2018-06-05T09:22:27.374Z,37.08
2018-06-05T09:27:30.425Z,40.78
2018-06-05T09:32:33.488Z,41.85
2018-06-05T09:37:36.541Z,34.58
2018-06-05T09:42:39.624Z,31.35
2018-06-05T09:47:42.704Z,29.05
2018-06-05T09:52:45.733Z,28.75
2018-06-05T09:57:48.931Z,26.25
2018-06-05T10:02:51.977Z,25.00
2018-06-05T10:07:55.090Z,25.48
2018-06-05T10:12:58.413Z,24.90
2018-06-05T10:18:02.116Z,25.85
2018-06-05T10:23:05.356Z,24.47
2018-06-05T10:28:08.536Z,23.98
2018-06-05T10:33:11.643Z,21.73
2018-06-05T10:38:14.739Z,24.10
2018-06-05T10:43:17.833Z,24.65
2018-06-05T10:48:21.035Z,28.42
2018-06-05T10:53:24.256Z,32.25
2018-06-05T10:58:27.305Z,26.90
2018-06-05T11:03:30.394Z,25.40
2018-06-05T11:08:33.491Z,27.20
2018-06-05T11:13:36.600Z,26.48
2018-06-05T11:18:39.674Z,20.05
2018-06-05T11:23:42.841Z,21.65
2018-06-05T11:28:45.930Z,14.63
2018-06-05T11:33:49.044Z,22.85
2018-06-05T11:38:52.188Z,21.37
2018-06-05T11:43:55.272Z,26.07
2018-06-05T11:48:58.443Z,23.60
2018-06-05T11:54:01.568Z,31.50
2018-06-05T11:59:04.589Z,25.95
2018-06-05T12:04:07.973Z,25.17
2018-06-05T12:09:11.788Z,27.40
2018-06-05T12:14:14.908Z,24.65
2018-06-05T12:19:18.005Z,26.10
2018-06-05T12:24:21.145Z,24.18
2018-06-05T12:29:24.252Z,20.88
2018-06-05T12:34:27.300Z,26.33
2018-06-05T12:39:30.318Z,24.52
2018-06-05T12:44:33.338Z,23.55
2018-06-05T12:49:36.508Z,23.50
2018-06-05T12:54:39.575Z,28.35
2018-06-05T12:59:42.695Z,28.42
2018-06-05T13:04:45.770Z,27.22
2018-06-05T13:09:48.899Z,31.90
2018-06-05T13:14:51.995Z,25.85
2018-06-05T13:19:55.105Z,27.73
2018-06-05T13:24:58.121Z,28.35
2018-06-05T13:30:01.335Z,26.60
2018-06-05T13:35:05.401Z,26.70
2018-06-05T13:40:08.577Z,21.27
2018-06-05T13:45:11.707Z,20.30
2018-06-05T13:50:14.800Z,18.40
2018-06-05T13:55:17.841Z,21.43
2018-06-05T14:00:20.944Z,27.33
2018-06-05T14:05:24.071Z,20.13
2018-06-05T14:10:27.188Z,20.40
2018-06-05T14:15:30.269Z,20.92
2018-06-05T14:20:33.355Z,22.22
2018-06-05T14:25:36.436Z,18.77
2018-06-05T14:30:39.542Z,17.65
2018-06-05T14:35:42.652Z,20.82
2018-06-05T14:40:45.700Z,20.68
2018-06-05T14:45:48.741Z,15.32
2018-06-05T14:50:51.847Z,17.80
2018-06-05T14:55:54.980Z,19.23
2018-06-05T15:00:58.156Z,16.10
2018-06-05T15:06:01.256Z,17.57
2018-06-05T15:11:05.277Z,17.02
2018-06-05T15:16:08.331Z,16.17
2018-06-05T15:21:11.384Z,19.85
2018-06-05T15:26:14.515Z,19.75
2018-06-05T15:31:17.538Z,18.80
2018-06-05T15:36:20.653Z,16.45
2018-06-05T15:41:23.792Z,16.23
2018-06-05T15:46:26.831Z,18.12
2018-06-05T15:51:29.942Z,17.35
2018-06-05T15:56:33.125Z,13.62
2018-06-05T16:01:36.208Z,16.32
2018-06-05T16:06:39.347Z,13.62
2018-06-05T16:11:42.669Z,13.22
2018-06-05T16:16:46.168Z,12.13
2018-06-05T16:21:49.220Z,12.05
2018-06-05T16:26:52.268Z,12.28
2018-06-05T16:31:55.579Z,10.50
2018-06-05T16:36:59.409Z,12.85
2018-06-05T16:42:03.235Z,9.00
2018-06-05T16:47:06.303Z,10.80
2018-06-05T16:52:09.599Z,10.93
2018-06-05T16:57:12.865Z,10.75
2018-06-05T17:02:16.045Z,10.93
2018-06-05T17:07:19.498Z,11.93
2018-06-05T17:12:22.677Z,13.50
2018-06-05T17:17:26.626Z,10.58
2018-06-05T17:22:29.741Z,11.93
2018-06-05T17:27:33.047Z,12.20
2018-06-05T17:32:36.201Z,12.03
2018-06-05T17:37:40.371Z,10.63
2018-06-05T17:42:43.401Z,12.37
2018-06-05T17:47:46.657Z,13.58
2018-06-05T17:52:49.809Z,12.55
2018-06-05T17:57:53.165Z,11.57
2018-06-05T18:02:56.514Z,12.95
2018-06-05T18:08:00.277Z,9.65
2018-06-05T18:13:03.302Z,11.60
2018-06-05T18:18:06.428Z,12.28
2018-06-05T18:23:09.885Z,17.25
2018-06-05T18:28:13.199Z,10.18
2018-06-05T18:33:16.324Z,11.40
2018-06-05T18:38:19.557Z,11.35
2018-06-05T18:43:22.640Z,10.95
2018-06-05T18:48:25.762Z,11.57
2018-06-05T18:53:29.055Z,10.98
2018-06-05T18:58:32.199Z,9.38
2018-06-05T19:03:35.209Z,11.28
2018-06-05T19:08:38.414Z,12.93
2018-06-05T19:13:42.038Z,13.18
2018-06-05T19:18:45.243Z,10.63
2018-06-05T19:23:49.093Z,9.85
2018-06-05T19:28:52.335Z,10.05
2018-06-05T19:33:55.468Z,11.33
2018-06-05T19:38:58.785Z,13.60
2018-06-05T19:44:02.331Z,12.80
2018-06-05T19:49:05.656Z,10.30
2018-06-05T19:54:08.794Z,10.32
2018-06-05T19:59:12.023Z,12.93
2018-06-05T20:04:15.110Z,10.10
2018-06-05T20:09:18.227Z,9.88
2018-06-05T20:14:21.393Z,11.03
2018-06-05T20:19:25.078Z,13.90
2018-06-05T20:24:28.140Z,11.33
2018-06-05T20:29:31.632Z,10.00
2018-06-05T20:34:34.764Z,11.25
2018-06-05T20:39:39.005Z,10.08
2018-06-05T20:44:42.067Z,11.00
2018-06-05T20:49:45.805Z,10.72
2018-06-05T20:54:49.302Z,9.73
2018-06-05T20:59:53.834Z,13.90
2018-06-05T21:04:57.129Z,11.63
2018-06-05T21:10:01.544Z,11.35
2018-06-05T21:15:04.805Z,11.08
2018-06-05T21:20:07.872Z,12.60
2018-06-05T21:25:11.017Z,10.57
2018-06-05T21:30:14.211Z,11.40
2018-06-05T21:35:17.334Z,13.30
2018-06-05T21:40:20.542Z,11.05
2018-06-05T21:45:23.764Z,11.37
2018-06-05T21:50:26.990Z,10.98
2018-06-05T21:55:30.100Z,13.53
2018-06-05T22:00:33.609Z,13.28
2018-06-05T22:05:36.704Z,10.68
2018-06-05T22:10:39.840Z,11.18
2018-06-05T22:15:44.007Z,12.00
2018-06-05T22:20:47.079Z,10.48
2018-06-05T22:25:50.169Z,11.15
2018-06-05T22:30:53.228Z,9.40
2018-06-05T22:35:56.269Z,10.53
2018-06-05T22:40:59.337Z,9.98
2018-06-05T22:46:02.372Z,10.43
2018-06-05T22:51:05.436Z,12.88
2018-06-05T22:56:09.005Z,10.05
2018-06-05T23:01:12.143Z,9.93
2018-06-05T23:06:16.188Z,9.43
2018-06-05T23:11:19.306Z,10.10
2018-06-05T23:16:22.551Z,9.53
2018-06-05T23:21:25.586Z,10.63
2018-06-05T23:26:28.657Z,8.68
2018-06-05T23:31:31.731Z,8.83
2018-06-05T23:36:34.969Z,11.53
2018-06-05T23:41:37.998Z,11.33
2018-06-05T23:46:41.039Z,12.58
2018-06-05T23:51:44.234Z,14.10
2018-06-05T23:56:47.427Z,12.70
